Terminal Aerodrome Forecast
Issued by NWS

Home | Current Version | Previous Version | Text Only | Print | Product List | Glossary On
Versions: 1 2 3 4 5 6 7 8 9 10 11 12
000
FTUS43 KICT 241132
TAFRSL
TAF
KRSL 241132Z 2412/2512 11010KT P6SM SCT150
     FM241600 15012KT P6SM SCT150
     FM241900 25013KT P6SM SCT050 SCT120
     FM242100 30017G26KT P6SM SCT030 BKN120
     FM250000 30018G26KT P6SM BKN030=

USA.gov is the U.S. government's official web portal to all federal, state and local government web resources and services.